createdAt,value
2018-07-04T00:00:15.057Z,21.70
2018-07-04T00:01:15.026Z,22.80
2018-07-04T00:02:15.003Z,29.40
2018-07-04T00:03:14.975Z,22.30
2018-07-04T00:04:14.954Z,15.70
2018-07-04T00:05:14.924Z,25.70
2018-07-04T00:06:14.899Z,26.60
2018-07-04T00:07:14.875Z,18.40
2018-07-04T00:08:14.849Z,21.10
2018-07-04T00:09:14.822Z,20.90
2018-07-04T00:10:14.799Z,19.40
2018-07-04T00:11:14.776Z,17.40
2018-07-04T00:12:14.754Z,23.20
2018-07-04T00:13:14.725Z,20.00
2018-07-04T00:14:14.701Z,22.90
2018-07-04T00:15:14.673Z,21.30
2018-07-04T00:16:14.649Z,27.30
2018-07-04T00:17:14.629Z,27.70
2018-07-04T00:18:14.598Z,23.20
2018-07-04T00:19:14.576Z,23.00
2018-07-04T00:20:14.553Z,21.40
2018-07-04T00:21:14.557Z,18.90
2018-07-04T00:22:14.501Z,20.80
2018-07-04T00:23:14.475Z,25.40
2018-07-04T00:24:14.453Z,26.00
2018-07-04T00:25:14.423Z,19.80
2018-07-04T00:26:14.401Z,21.60
2018-07-04T00:27:14.374Z,18.90
2018-07-04T00:28:14.347Z,24.10
2018-07-04T00:29:14.321Z,23.70
2018-07-04T00:30:14.301Z,28.00
2018-07-04T00:31:14.274Z,24.40
2018-07-04T00:32:14.247Z,22.00
2018-07-04T00:33:14.222Z,23.40
2018-07-04T00:34:14.206Z,21.30
2018-07-04T00:35:14.171Z,24.80
2018-07-04T00:36:14.146Z,24.40
2018-07-04T00:37:14.121Z,24.90
2018-07-04T00:38:14.095Z,23.40
2018-07-04T00:39:14.069Z,22.30
2018-07-04T00:40:14.044Z,15.20
2018-07-04T00:41:14.019Z,21.40
2018-07-04T00:42:13.995Z,19.80
2018-07-04T00:43:13.969Z,19.50
2018-07-04T00:44:13.946Z,22.90
2018-07-04T00:45:13.921Z,29.40
2018-07-04T00:46:13.894Z,27.40
2018-07-04T00:47:13.888Z,24.70
2018-07-04T00:48:13.843Z,20.00
2018-07-04T00:49:13.823Z,21.30
2018-07-04T00:50:13.796Z,16.80
2018-07-04T00:51:13.768Z,28.10
2018-07-04T00:52:13.744Z,22.80
2018-07-04T00:53:13.719Z,24.20
2018-07-04T00:54:13.691Z,18.80
2018-07-04T00:55:13.668Z,27.50
2018-07-04T00:56:13.649Z,21.70
2018-07-04T00:57:13.618Z,23.40
2018-07-04T00:58:13.592Z,28.40
2018-07-04T00:59:13.564Z,24.10
2018-07-04T01:00:13.542Z,26.90
2018-07-04T01:01:13.537Z,20.00
2018-07-04T01:02:13.690Z,28.20
2018-07-04T01:03:13.465Z,25.40
2018-07-04T01:04:13.439Z,27.80
2018-07-04T01:05:13.414Z,22.60
2018-07-04T01:06:13.592Z,19.20
2018-07-04T01:07:13.564Z,21.80
2018-07-04T01:08:13.337Z,26.60
2018-07-04T01:09:13.311Z,25.80
2018-07-04T01:10:13.285Z,26.50
2018-07-04T01:11:13.265Z,21.10
2018-07-04T01:12:13.235Z,27.50
2018-07-04T01:13:13.209Z,26.80
2018-07-04T01:14:13.185Z,31.20
2018-07-04T01:15:13.161Z,28.00
2018-07-04T01:16:13.141Z,24.40
2018-07-04T01:17:13.110Z,23.80
2018-07-04T01:18:13.085Z,27.30
2018-07-04T01:19:13.057Z,24.10
2018-07-04T01:20:13.034Z,21.40
2018-07-04T01:21:13.008Z,23.90
2018-07-04T01:22:12.980Z,20.90
2018-07-04T01:23:12.958Z,23.50
2018-07-04T01:24:12.934Z,25.80
2018-07-04T01:25:12.906Z,25.80
2018-07-04T01:26:12.881Z,26.50
2018-07-04T01:27:12.854Z,23.80
2018-07-04T01:28:12.829Z,23.90
2018-07-04T01:29:12.802Z,24.70
2018-07-04T01:30:12.777Z,26.50
2018-07-04T01:31:12.754Z,20.80
2018-07-04T01:32:12.728Z,20.80
2018-07-04T01:33:12.701Z,26.70
2018-07-04T01:34:12.679Z,28.50
2018-07-04T01:35:12.650Z,25.60
2018-07-04T01:36:12.625Z,26.50
2018-07-04T01:37:12.601Z,27.10
2018-07-04T01:38:12.574Z,22.50
2018-07-04T01:39:12.550Z,24.50
2018-07-04T01:40:12.525Z,24.10
2018-07-04T01:41:12.500Z,23.80
2018-07-04T01:42:12.476Z,25.40
2018-07-04T01:43:12.449Z,30.00
2018-07-04T01:44:12.424Z,26.70
2018-07-04T01:45:12.400Z,21.50
2018-07-04T01:46:12.372Z,22.80
2018-07-04T01:47:12.345Z,23.00
2018-07-04T01:48:12.321Z,30.00
2018-07-04T01:49:12.294Z,23.70
2018-07-04T01:50:12.269Z,25.20
2018-07-04T01:51:12.244Z,27.40
2018-07-04T01:52:12.223Z,29.80
2018-07-04T01:53:12.194Z,23.00
2018-07-04T01:54:12.169Z,21.10
2018-07-04T01:55:12.154Z,27.60
2018-07-04T01:56:12.116Z,21.90
2018-07-04T01:57:12.094Z,31.50
2018-07-04T01:58:12.067Z,31.70
2018-07-04T01:59:12.040Z,21.10
2018-07-04T02:00:12.017Z,30.20
2018-07-04T02:01:11.988Z,26.60
2018-07-04T02:02:11.963Z,27.30
2018-07-04T02:03:11.940Z,22.50
2018-07-04T02:04:11.920Z,25.40
2018-07-04T02:05:11.901Z,26.10
2018-07-04T02:06:11.863Z,21.90
2018-07-04T02:07:11.836Z,26.20
2018-07-04T02:08:11.814Z,24.30
2018-07-04T02:09:11.790Z,25.40
2018-07-04T02:10:11.759Z,32.50
2018-07-04T02:11:11.938Z,28.20
2018-07-04T02:12:11.711Z,24.90
2018-07-04T02:13:11.683Z,32.50
2018-07-04T02:14:11.663Z,22.30
2018-07-04T02:15:11.634Z,29.10
2018-07-04T02:16:11.611Z,26.40
2018-07-04T02:17:11.582Z,25.40
2018-07-04T02:18:11.568Z,25.50
2018-07-04T02:19:11.533Z,30.20
2018-07-04T02:20:11.503Z,25.50
2018-07-04T02:21:11.477Z,21.20
2018-07-04T02:22:11.456Z,22.80
2018-07-04T02:23:11.428Z,26.50
2018-07-04T02:24:11.404Z,24.50
2018-07-04T02:25:11.380Z,19.40
2018-07-04T02:26:11.352Z,26.30
2018-07-04T02:27:11.339Z,24.10
2018-07-04T02:28:11.300Z,23.40
2018-07-04T02:29:11.273Z,23.90
2018-07-04T02:30:11.249Z,29.60
2018-07-04T02:31:11.223Z,29.30
2018-07-04T02:32:11.197Z,25.70
2018-07-04T02:33:11.173Z,21.30
2018-07-04T02:34:11.148Z,31.40
2018-07-04T02:35:11.125Z,25.40
2018-07-04T02:36:11.102Z,29.50
2018-07-04T02:37:11.071Z,26.60
2018-07-04T02:38:11.050Z,30.00
2018-07-04T02:39:11.224Z,20.70
2018-07-04T02:40:10.991Z,22.10
2018-07-04T02:41:11.169Z,24.50
2018-07-04T02:42:10.941Z,33.40
2018-07-04T02:43:10.917Z,28.90
2018-07-04T02:44:10.893Z,26.60
2018-07-04T02:45:10.872Z,24.90
2018-07-04T02:46:10.841Z,26.10
2018-07-04T02:47:10.815Z,22.10
2018-07-04T02:48:10.789Z,25.80
2018-07-04T02:49:10.768Z,28.60
2018-07-04T02:50:10.742Z,25.20
2018-07-04T02:51:10.718Z,29.40
2018-07-04T02:52:10.686Z,27.70
2018-07-04T02:53:10.811Z,24.30
2018-07-04T02:54:10.667Z,28.30
2018-07-04T02:55:10.611Z,30.80
2018-07-04T02:56:10.585Z,29.50
2018-07-04T02:57:10.559Z,28.20
2018-07-04T02:58:10.535Z,29.40
2018-07-04T02:59:10.506Z,28.80
2018-07-04T03:00:10.481Z,24.10
2018-07-04T03:01:10.454Z,27.70
2018-07-04T03:02:10.440Z,25.00
2018-07-04T03:03:10.406Z,26.80
2018-07-04T03:04:10.379Z,24.30
2018-07-04T03:05:10.353Z,27.90
2018-07-04T03:06:10.327Z,24.90
2018-07-04T03:07:10.304Z,25.80
2018-07-04T03:08:10.278Z,26.10
2018-07-04T03:09:10.252Z,28.30
2018-07-04T03:10:10.226Z,30.70
2018-07-04T03:11:10.201Z,31.10
2018-07-04T03:12:10.174Z,31.80
2018-07-04T03:13:10.148Z,25.30
2018-07-04T03:14:10.123Z,22.50
2018-07-04T03:15:10.098Z,30.00
2018-07-04T03:16:10.074Z,25.20
2018-07-04T03:17:10.052Z,30.00
2018-07-04T03:18:10.021Z,25.50
2018-07-04T03:19:10.002Z,19.30
2018-07-04T03:20:09.972Z,26.20
2018-07-04T03:21:09.944Z,27.30
2018-07-04T03:22:09.921Z,30.70
2018-07-04T03:23:09.895Z,21.80
2018-07-04T03:24:09.867Z,27.30
2018-07-04T03:25:09.841Z,19.80
2018-07-04T03:26:09.816Z,21.10
2018-07-04T03:27:09.793Z,26.20
2018-07-04T03:28:09.766Z,31.10
2018-07-04T03:29:09.740Z,27.60
2018-07-04T03:30:09.716Z,25.70
2018-07-04T03:31:09.695Z,25.60
2018-07-04T03:32:09.664Z,21.60
2018-07-04T03:33:09.639Z,25.90
2018-07-04T03:34:09.611Z,25.00
2018-07-04T03:35:09.588Z,21.20
2018-07-04T03:36:09.564Z,26.80
2018-07-04T03:37:09.537Z,24.10
2018-07-04T03:38:09.511Z,27.00
2018-07-04T03:39:09.485Z,25.20
2018-07-04T03:40:09.461Z,21.50
2018-07-04T03:41:09.434Z,26.30
2018-07-04T03:42:09.408Z,25.00
2018-07-04T03:43:09.384Z,27.30
2018-07-04T03:44:09.372Z,20.90
2018-07-04T03:45:09.334Z,27.70
2018-07-04T03:46:09.313Z,24.10
2018-07-04T03:47:09.284Z,27.00
2018-07-04T03:48:09.256Z,24.30
2018-07-04T03:49:09.230Z,28.30
2018-07-04T03:50:09.210Z,17.30
2018-07-04T03:51:09.180Z,22.00
2018-07-04T03:52:09.160Z,25.10
2018-07-04T03:53:09.130Z,26.50
2018-07-04T03:54:09.107Z,19.60
2018-07-04T03:55:09.082Z,22.10
2018-07-04T03:56:09.057Z,18.90
2018-07-04T03:57:09.031Z,22.10
2018-07-04T03:58:09.067Z,24.30
2018-07-04T03:59:08.981Z,23.30
2018-07-04T04:00:08.956Z,22.10
2018-07-04T04:01:08.931Z,21.70
2018-07-04T04:02:08.910Z,21.60
2018-07-04T04:03:08.885Z,24.60
2018-07-04T04:04:08.862Z,25.30
2018-07-04T04:05:08.835Z,22.30
2018-07-04T04:06:08.812Z,19.70
2018-07-04T04:07:08.789Z,22.50
2018-07-04T04:08:08.764Z,19.00
2018-07-04T04:09:08.738Z,22.00
2018-07-04T04:10:08.756Z,25.80
2018-07-04T04:11:08.890Z,20.00
2018-07-04T04:12:08.663Z,20.20
2018-07-04T04:13:08.639Z,23.90
2018-07-04T04:14:08.616Z,23.60
2018-07-04T04:15:08.597Z,16.40
2018-07-04T04:16:08.773Z,18.40
2018-07-04T04:17:08.547Z,21.10
2018-07-04T04:18:08.521Z,17.90
2018-07-04T04:19:08.498Z,22.60
2018-07-04T04:20:08.474Z,22.40
2018-07-04T04:21:08.450Z,23.80
2018-07-04T04:22:08.432Z,20.50
2018-07-04T04:23:08.403Z,20.60
2018-07-04T04:24:08.383Z,18.90
2018-07-04T04:25:08.356Z,28.40
2018-07-04T04:26:08.333Z,46.70
2018-07-04T04:27:08.336Z,32.70
2018-07-04T04:28:08.293Z,22.20
2018-07-04T04:29:08.265Z,22.30
2018-07-04T04:30:08.447Z,21.90
2018-07-04T04:31:08.421Z,20.30
2018-07-04T04:32:08.196Z,17.10
2018-07-04T04:33:08.178Z,19.90
2018-07-04T04:34:08.351Z,21.70
2018-07-04T04:35:08.138Z,20.70
2018-07-04T04:36:08.111Z,17.90
2018-07-04T04:37:08.089Z,17.60
2018-07-04T04:38:08.083Z,23.80
2018-07-04T04:39:08.038Z,14.10
2018-07-04T04:40:08.218Z,23.40
2018-07-04T04:41:08.198Z,29.30
2018-07-04T04:42:08.173Z,23.50
2018-07-04T04:43:08.152Z,22.50
2018-07-04T04:44:09.344Z,19.00
2018-07-04T04:45:07.905Z,22.20
2018-07-04T04:46:07.898Z,20.60
2018-07-04T04:47:07.861Z,24.00
2018-07-04T04:48:07.837Z,21.70
2018-07-04T04:49:07.817Z,18.40
2018-07-04T04:50:07.794Z,25.80
2018-07-04T04:51:07.975Z,19.60
2018-07-04T04:52:07.961Z,22.80
2018-07-04T04:53:07.730Z,19.70
2018-07-04T04:54:07.708Z,23.70
2018-07-04T04:55:07.902Z,19.20
2018-07-04T04:56:07.668Z,17.20
2018-07-04T04:57:07.644Z,23.00
2018-07-04T04:58:07.621Z,19.90
2018-07-04T04:59:07.599Z,23.50
2018-07-04T05:00:07.579Z,16.10
2018-07-04T05:01:07.553Z,16.40
2018-07-04T05:02:07.539Z,15.30
2018-07-04T05:03:07.715Z,18.10
2018-07-04T05:04:07.490Z,17.50
2018-07-04T05:05:07.468Z,18.10
2018-07-04T05:06:07.649Z,18.40
2018-07-04T05:07:07.424Z,18.30
2018-07-04T05:08:07.411Z,15.60
2018-07-04T05:09:07.582Z,21.90
2018-07-04T05:10:07.561Z,17.60
2018-07-04T05:11:07.338Z,30.80
2018-07-04T05:12:07.319Z,20.60
2018-07-04T05:13:07.295Z,19.50
2018-07-04T05:14:07.274Z,21.30
2018-07-04T05:15:07.254Z,19.20
2018-07-04T05:16:07.234Z,16.20
2018-07-04T05:17:07.215Z,19.40
2018-07-04T05:18:07.193Z,16.90
2018-07-04T05:19:07.171Z,19.00
2018-07-04T05:20:07.351Z,23.60
2018-07-04T05:21:07.126Z,20.20
2018-07-04T05:22:07.106Z,16.30
2018-07-04T05:23:07.088Z,17.60
2018-07-04T05:24:07.067Z,22.30
2018-07-04T05:25:07.045Z,19.80
2018-07-04T05:26:07.226Z,17.30
2018-07-04T05:27:07.005Z,21.00
2018-07-04T05:28:06.984Z,20.40
2018-07-04T05:29:06.961Z,21.30
2018-07-04T05:30:06.943Z,20.90
2018-07-04T05:31:07.732Z,19.60
2018-07-04T05:32:06.900Z,16.10
2018-07-04T05:33:07.081Z,15.40
2018-07-04T05:34:06.860Z,20.10
2018-07-04T05:35:06.856Z,18.70
2018-07-04T05:36:06.820Z,23.20
2018-07-04T05:37:06.801Z,18.90
2018-07-04T05:38:06.780Z,19.20
2018-07-04T05:39:06.757Z,20.20
2018-07-04T05:40:06.741Z,17.30
2018-07-04T05:41:06.723Z,22.60
2018-07-04T05:42:06.698Z,17.10
2018-07-04T05:43:06.882Z,24.30
2018-07-04T05:44:06.660Z,17.90
2018-07-04T05:45:06.639Z,22.20
2018-07-04T05:46:06.620Z,18.70
2018-07-04T05:47:06.598Z,21.90
2018-07-04T05:48:06.578Z,19.30
2018-07-04T05:49:06.557Z,17.90
2018-07-04T05:50:06.540Z,16.20
2018-07-04T05:51:06.520Z,14.30
2018-07-04T05:52:06.501Z,18.00
2018-07-04T05:53:06.684Z,19.80
2018-07-04T05:54:06.464Z,17.30
2018-07-04T05:55:06.443Z,20.70
2018-07-04T05:56:06.432Z,17.10
2018-07-04T05:57:06.402Z,13.20
2018-07-04T05:58:06.383Z,20.50
2018-07-04T05:59:06.364Z,16.10
2018-07-04T06:00:06.548Z,19.10
2018-07-04T06:01:06.528Z,20.10
2018-07-04T06:02:06.509Z,24.80
2018-07-04T06:03:06.290Z,21.90
2018-07-04T06:04:06.473Z,14.90
2018-07-04T06:05:06.253Z,18.50
2018-07-04T06:06:06.233Z,20.50
2018-07-04T06:07:06.212Z,20.20
2018-07-04T06:08:06.196Z,19.20
2018-07-04T06:09:06.215Z,18.70
2018-07-04T06:10:06.369Z,13.80
2018-07-04T06:11:06.341Z,14.30
2018-07-04T06:12:06.322Z,16.30
2018-07-04T06:13:48.462Z,14.40
2018-07-04T06:14:48.440Z,19.50
2018-07-04T06:15:48.422Z,19.20
2018-07-04T06:17:48.382Z,22.70
2018-07-04T06:18:48.364Z,17.90
2018-07-04T06:19:48.146Z,24.20
2018-07-04T06:20:48.331Z,21.50
2018-07-04T06:21:48.113Z,25.00
2018-07-04T06:22:48.303Z,21.00
2018-07-04T06:23:48.071Z,14.50
2018-07-04T06:24:48.132Z,20.60
2018-07-04T06:25:48.234Z,17.70
2018-07-04T06:26:49.228Z,14.40
2018-07-04T06:27:47.997Z,12.80
2018-07-04T06:28:47.978Z,17.40
2018-07-04T06:29:47.964Z,18.90
2018-07-04T06:30:47.943Z,22.00
2018-07-04T06:31:47.925Z,13.60
2018-07-04T06:32:47.910Z,16.50
2018-07-04T06:33:47.892Z,16.70
2018-07-04T06:34:48.077Z,14.50
2018-07-04T06:35:47.869Z,22.80
2018-07-04T06:36:47.836Z,15.60
2018-07-04T06:37:47.821Z,15.60
2018-07-04T06:38:47.801Z,18.80
2018-07-04T06:39:47.987Z,17.70
2018-07-04T06:40:47.771Z,16.20
2018-07-04T06:41:47.952Z,15.60
2018-07-04T06:42:47.731Z,12.80
2018-07-04T06:43:47.917Z,20.50
2018-07-04T06:44:47.900Z,19.60
2018-07-04T06:45:47.680Z,16.10
2018-07-04T06:46:47.662Z,20.00
2018-07-04T06:47:47.644Z,14.00
2018-07-04T06:48:47.639Z,17.50
2018-07-04T06:49:47.610Z,16.20
2018-07-04T06:50:47.590Z,16.80
2018-07-04T06:51:47.578Z,18.40
2018-07-04T06:52:47.557Z,20.10
2018-07-04T06:53:47.546Z,15.10
2018-07-04T06:54:47.528Z,18.10
2018-07-04T06:55:47.707Z,14.00
2018-07-04T06:56:47.489Z,26.30
2018-07-04T06:57:47.471Z,13.20
2018-07-04T06:58:47.452Z,20.30
2018-07-04T06:59:47.436Z,14.40
2018-07-04T07:00:47.420Z,15.40
2018-07-04T07:08:07.026Z,12.60
2018-07-04T07:09:06.802Z,12.20
2018-07-04T07:10:06.781Z,13.10
2018-07-04T07:11:06.770Z,16.40
2018-07-04T07:12:06.748Z,15.30
2018-07-04T07:13:06.746Z,19.80
2018-07-04T07:14:06.713Z,16.90
2018-07-04T07:15:09.584Z,11.90
2018-07-04T07:16:06.685Z,16.50
2018-07-04T07:17:06.867Z,16.60
2018-07-04T07:18:06.650Z,12.90
2018-07-04T07:19:06.839Z,11.00
2018-07-04T07:20:06.620Z,15.70
2018-07-04T07:21:06.656Z,12.60
2018-07-04T07:22:06.583Z,8.30
2018-07-04T07:23:06.570Z,12.30
2018-07-04T07:24:06.555Z,13.70
2018-07-04T07:25:06.536Z,14.80
2018-07-04T07:26:06.528Z,14.90
2018-07-04T07:27:06.507Z,16.90
2018-07-04T07:28:06.698Z,12.80
2018-07-04T07:29:06.682Z,13.50
2018-07-04T07:30:06.460Z,14.20
2018-07-04T07:31:06.445Z,15.10
2018-07-04T07:32:06.484Z,15.10
2018-07-04T07:33:06.416Z,9.40
2018-07-04T07:34:06.712Z,13.30
2018-07-04T07:35:06.586Z,15.00
2018-07-04T07:36:06.386Z,11.90
2018-07-04T07:37:06.358Z,11.70
2018-07-04T07:38:06.354Z,17.00
2018-07-04T07:39:06.528Z,14.90
2018-07-04T07:40:06.317Z,11.50
2018-07-04T07:41:06.299Z,16.70
2018-07-04T07:42:06.484Z,16.10
2018-07-04T07:43:06.466Z,14.30
2018-07-04T07:44:06.452Z,11.40
2018-07-04T07:45:06.439Z,12.20
2018-07-04T07:46:06.426Z,13.70
2018-07-04T07:47:06.409Z,14.90
2018-07-04T07:48:06.394Z,16.30
2018-07-04T07:49:06.176Z,13.20
2018-07-04T07:50:06.159Z,19.20
2018-07-04T07:51:06.346Z,16.70
2018-07-04T07:52:06.334Z,17.50
2018-07-04T07:53:06.140Z,16.30
2018-07-04T07:54:06.146Z,15.40
2018-07-04T07:55:06.295Z,15.90
2018-07-04T07:56:06.073Z,14.90
2018-07-04T07:57:06.056Z,11.90
2018-07-04T07:58:06.040Z,12.40
2018-07-04T07:59:06.228Z,17.70
2018-07-04T08:00:06.213Z,15.10
2018-07-04T08:01:05.999Z,13.40
2018-07-04T08:02:05.984Z,11.70
2018-07-04T08:03:05.964Z,10.00
2018-07-04T08:04:05.948Z,11.80
2018-07-04T08:05:05.932Z,19.00
2018-07-04T08:06:05.920Z,12.30
2018-07-04T08:07:05.907Z,20.50
2018-07-04T08:08:05.892Z,16.80
2018-07-04T08:09:05.878Z,11.50
2018-07-04T08:10:05.861Z,18.10
2018-07-04T08:11:06.045Z,18.00
2018-07-04T08:12:05.830Z,10.70
2018-07-04T08:13:06.015Z,15.90
2018-07-04T08:14:05.800Z,15.60
2018-07-04T08:15:05.986Z,15.70
2018-07-04T08:16:05.770Z,16.00
2018-07-04T08:17:05.756Z,9.90
2018-07-04T08:18:05.740Z,13.90
2018-07-04T08:19:05.728Z,17.10
2018-07-04T08:20:05.707Z,19.80
2018-07-04T08:21:05.692Z,18.30
2018-07-04T08:22:05.681Z,9.80
2018-07-04T08:23:05.872Z,18.10
2018-07-04T08:24:05.658Z,17.10
2018-07-04T08:25:05.635Z,12.80
2018-07-04T08:26:05.824Z,15.30
2018-07-04T08:27:05.809Z,15.40
2018-07-04T08:28:05.795Z,10.70
2018-07-04T08:29:05.578Z,13.00
2018-07-04T08:30:05.763Z,14.60
2018-07-04T08:31:05.752Z,10.50
2018-07-04T08:32:05.533Z,15.10
2018-07-04T08:33:05.516Z,11.40
2018-07-04T08:34:05.708Z,13.30
2018-07-04T08:35:05.693Z,12.20
2018-07-04T08:36:05.477Z,13.30
2018-07-04T08:37:05.468Z,14.80
2018-07-04T08:38:05.446Z,12.10
2018-07-04T08:39:05.642Z,15.10
2018-07-04T08:40:05.622Z,21.00
2018-07-04T08:41:05.404Z,16.00
2018-07-04T08:42:05.591Z,11.40
2018-07-04T08:43:05.383Z,13.00
2018-07-04T08:44:05.365Z,10.00
2018-07-04T08:45:05.348Z,10.50
2018-07-04T08:46:05.334Z,14.50
2018-07-04T08:47:05.320Z,13.00
2018-07-04T08:48:05.310Z,12.70
2018-07-04T08:49:05.293Z,11.10
2018-07-04T08:50:05.276Z,11.70
2018-07-04T08:51:05.275Z,15.40
2018-07-04T08:52:05.450Z,10.80
2018-07-04T08:53:05.234Z,13.10
2018-07-04T08:54:05.424Z,17.00
2018-07-04T08:55:05.214Z,11.80
2018-07-04T08:56:05.404Z,9.80
2018-07-04T08:57:05.179Z,15.40
2018-07-04T08:58:05.175Z,16.10
2018-07-04T08:59:47.516Z,14.70
2018-07-04T09:00:47.300Z,12.20
2018-07-04T09:01:48.095Z,10.20
2018-07-04T09:02:47.270Z,12.70
2018-07-04T09:03:47.257Z,12.10
2018-07-04T09:04:47.242Z,11.90
2018-07-04T09:05:47.439Z,11.30
2018-07-04T09:06:47.217Z,11.30
2018-07-04T09:07:47.204Z,14.90
2018-07-04T09:08:47.190Z,11.00
2018-07-04T09:09:47.378Z,11.60
2018-07-04T09:10:47.368Z,8.90
2018-07-04T09:11:47.155Z,10.90
2018-07-04T09:12:47.135Z,11.10
2018-07-04T09:13:47.122Z,14.50
2018-07-04T09:14:47.109Z,11.70
2018-07-04T09:15:47.103Z,11.10
2018-07-04T09:16:50.919Z,17.30
2018-07-04T09:17:47.070Z,10.80
2018-07-04T09:18:47.261Z,11.20
2018-07-04T09:19:47.044Z,9.20
2018-07-04T09:20:47.033Z,12.00
2018-07-04T09:21:47.020Z,9.20
2018-07-04T09:22:47.005Z,9.10
2018-07-04T09:58:13.035Z,9.20
2018-07-04T09:59:12.813Z,8.60
2018-07-04T10:00:12.793Z,12.50
2018-07-04T11:36:04.550Z,11.70
2018-07-04T11:37:04.537Z,10.70
2018-07-04T11:38:04.324Z,11.40
2018-07-04T11:39:04.309Z,16.20
2018-07-04T11:40:04.295Z,11.30
2018-07-04T11:41:04.291Z,26.20
2018-07-04T11:42:04.273Z,16.70
2018-07-04T11:43:04.466Z,11.80
2018-07-04T11:44:04.455Z,16.20
2018-07-04T11:45:04.452Z,11.30
2018-07-04T11:46:04.433Z,15.30
2018-07-04T11:47:04.421Z,19.00
2018-07-04T11:48:04.412Z,18.10
2018-07-04T11:49:04.197Z,18.00
2018-07-04T11:50:04.389Z,10.20
2018-07-04T11:51:04.175Z,12.50
2018-07-04T11:52:04.368Z,10.70
2018-07-04T11:53:04.397Z,14.40
2018-07-04T11:54:04.349Z,15.40
2018-07-04T11:55:04.137Z,15.10
2018-07-04T11:56:04.328Z,15.30
2018-07-04T11:57:04.150Z,15.70
2018-07-04T11:58:04.107Z,9.30
2018-07-04T11:59:04.296Z,13.80
2018-07-04T12:00:04.085Z,13.50
2018-07-04T12:01:04.075Z,11.40
2018-07-04T12:02:04.266Z,17.80
2018-07-04T12:03:04.062Z,19.00
2018-07-04T12:04:06.902Z,13.70
2018-07-04T12:05:04.037Z,20.30
2018-07-04T12:06:04.234Z,22.60
2018-07-04T12:07:04.220Z,16.30
2018-07-04T12:08:04.010Z,10.60
2018-07-04T12:09:04.010Z,19.20
2018-07-04T12:10:04.193Z,14.10
2018-07-04T12:11:04.181Z,10.60
2018-07-04T12:12:04.171Z,14.10
2018-07-04T12:13:03.961Z,22.00
2018-07-04T12:14:03.955Z,17.60
2018-07-04T12:15:03.941Z,24.40
2018-07-04T12:16:04.134Z,15.80
2018-07-04T12:17:03.923Z,12.80
2018-07-04T12:18:03.920Z,10.20
2018-07-04T12:19:03.901Z,14.20
2018-07-04T12:20:03.892Z,13.90
2018-07-04T12:21:03.962Z,22.10
2018-07-04T12:22:04.084Z,25.50
2018-07-04T12:23:03.862Z,27.40
2018-07-04T12:24:03.856Z,30.70
2018-07-04T12:25:03.843Z,27.90
2018-07-04T12:26:03.832Z,19.20
2018-07-04T12:27:03.827Z,15.20
2018-07-04T12:28:03.819Z,17.10
2018-07-04T12:29:03.808Z,17.00
2018-07-04T12:30:03.798Z,26.90
2018-07-04T12:31:03.994Z,25.70
2018-07-04T12:32:04.096Z,18.80
2018-07-04T12:33:03.969Z,22.30
2018-07-04T12:34:03.756Z,17.80
2018-07-04T12:35:03.750Z,14.40
2018-07-04T12:36:03.740Z,12.10
2018-07-04T12:37:03.731Z,15.10
2018-07-04T12:38:03.724Z,11.90
2018-07-04T12:39:03.713Z,6.60
2018-07-04T12:40:03.701Z,11.30
2018-07-04T12:41:03.686Z,18.80
2018-07-04T12:42:03.679Z,14.00
2018-07-04T12:43:03.681Z,24.60
2018-07-04T12:44:03.661Z,15.50
2018-07-04T12:45:03.652Z,17.90
2018-07-04T12:46:03.640Z,20.70
2018-07-04T12:47:03.653Z,10.10
2018-07-04T12:48:03.617Z,16.60
2018-07-04T12:49:03.607Z,14.80
2018-07-04T12:50:03.597Z,11.50
2018-07-04T12:51:03.610Z,15.10
2018-07-04T12:52:03.580Z,15.30
2018-07-04T12:53:03.574Z,12.60
2018-07-04T12:54:03.654Z,12.50
2018-07-04T12:55:03.547Z,8.60
2018-07-04T12:56:03.541Z,14.50
2018-07-04T12:57:03.526Z,6.90
2018-07-04T12:58:03.516Z,13.90
2018-07-04T12:59:03.503Z,12.50
2018-07-04T13:00:03.494Z,14.70
2018-07-04T13:01:03.482Z,12.70
2018-07-04T13:02:03.473Z,16.20
2018-07-04T13:03:03.529Z,22.00
2018-07-04T13:04:03.657Z,14.40
2018-07-04T13:05:03.650Z,10.20
2018-07-04T13:06:03.634Z,9.20
2018-07-04T13:07:03.627Z,9.20
2018-07-04T13:08:03.408Z,9.30
2018-07-04T13:09:03.397Z,10.00
2018-07-04T13:10:03.589Z,12.00
2018-07-04T13:11:03.381Z,11.90
2018-07-04T13:12:03.366Z,18.70
2018-07-04T13:13:03.353Z,13.60
2018-07-04T13:14:03.381Z,14.20
2018-07-04T13:15:03.336Z,15.70
2018-07-04T13:16:03.328Z,14.40
2018-07-04T13:17:03.314Z,9.30
2018-07-04T13:18:03.304Z,13.30
2018-07-04T13:19:03.292Z,8.70
2018-07-04T13:20:03.483Z,11.90
2018-07-04T13:21:03.270Z,11.50
2018-07-04T13:22:03.260Z,15.50
2018-07-04T13:23:05.876Z,12.00
2018-07-04T13:24:03.247Z,30.20
2018-07-04T13:25:03.232Z,16.50
2018-07-04T13:26:03.221Z,12.50
2018-07-04T13:27:03.211Z,14.30
2018-07-04T13:28:03.200Z,16.40
2018-07-04T13:29:03.189Z,10.00
2018-07-04T13:30:03.185Z,11.50
2018-07-04T13:31:03.170Z,10.70
2018-07-04T13:32:03.210Z,9.50
2018-07-04T13:33:03.146Z,10.50
2018-07-04T13:34:03.136Z,14.20
2018-07-04T13:35:03.128Z,17.30
2018-07-04T13:36:03.122Z,12.40
2018-07-04T13:37:03.106Z,11.30
2018-07-04T13:38:03.097Z,10.80
2018-07-04T13:39:03.089Z,10.50
2018-07-04T13:40:03.076Z,11.70
2018-07-04T13:41:03.065Z,12.70
2018-07-04T13:42:03.054Z,6.50
2018-07-04T13:43:03.070Z,5.70
2018-07-04T13:44:03.047Z,7.60
2018-07-04T13:45:03.032Z,9.50
2018-07-04T13:46:03.012Z,7.10
2018-07-04T13:47:03.006Z,8.00
2018-07-04T13:48:02.996Z,12.70
2018-07-04T13:49:02.983Z,6.90
2018-07-04T13:50:02.977Z,8.60
2018-07-04T13:51:02.966Z,6.20
2018-07-04T13:52:02.953Z,6.90
2018-07-04T13:53:02.943Z,7.10
2018-07-04T13:54:02.932Z,5.70
2018-07-04T13:55:02.924Z,11.70
2018-07-04T13:56:02.924Z,5.90
2018-07-04T13:57:03.321Z,5.40
2018-07-04T13:58:02.900Z,11.70
2018-07-04T13:59:02.883Z,16.80
2018-07-04T14:00:02.873Z,14.80
2018-07-04T14:01:02.861Z,14.90
2018-07-04T14:02:02.855Z,4.80
2018-07-04T14:03:02.840Z,12.00
2018-07-04T14:04:02.837Z,5.20
2018-07-04T14:05:02.821Z,5.50
2018-07-04T14:06:02.807Z,6.10
2018-07-04T14:07:02.800Z,8.70
2018-07-04T14:08:45.152Z,8.40
2018-07-04T14:09:48.980Z,6.10
2018-07-04T14:10:45.130Z,6.60
2018-07-04T14:11:44.916Z,7.30
2018-07-04T14:12:44.905Z,13.60
2018-07-04T14:13:44.898Z,10.40
2018-07-04T14:14:44.883Z,7.70
2018-07-04T14:15:44.876Z,9.10
2018-07-04T14:16:44.865Z,5.00
2018-07-04T14:17:44.853Z,7.70
2018-07-04T14:18:44.843Z,6.80
2018-07-04T14:19:44.830Z,6.10
2018-07-04T14:20:44.819Z,4.80
2018-07-04T14:21:44.828Z,10.00
2018-07-04T14:22:44.796Z,8.20
2018-07-04T14:23:44.787Z,7.70
2018-07-04T14:24:44.775Z,4.00
2018-07-04T14:25:44.763Z,7.20
2018-07-04T14:26:44.753Z,10.90
2018-07-04T14:27:44.746Z,15.00
2018-07-04T14:28:44.732Z,15.90
2018-07-04T14:29:44.721Z,10.40
2018-07-04T14:30:44.711Z,10.70
2018-07-04T14:31:44.697Z,7.60
2018-07-04T14:32:44.801Z,5.40
2018-07-04T14:33:44.676Z,7.10
2018-07-04T14:34:44.665Z,7.30
2018-07-04T14:35:44.656Z,10.10
2018-07-04T14:36:44.644Z,8.40
2018-07-04T14:37:44.632Z,11.80
2018-07-04T14:38:44.627Z,6.20
2018-07-04T14:39:44.618Z,5.60
2018-07-04T14:40:44.812Z,7.30
2018-07-04T14:41:44.595Z,9.40
2018-07-04T14:42:44.578Z,10.90
2018-07-04T14:43:44.565Z,10.60
2018-07-04T14:44:44.554Z,8.80
2018-07-04T14:45:44.542Z,9.30
2018-07-04T14:46:44.575Z,5.70
2018-07-04T14:47:44.522Z,4.50
2018-07-04T14:48:44.511Z,7.50
2018-07-04T14:49:44.500Z,7.40
2018-07-04T14:50:44.491Z,3.30
2018-07-04T14:51:44.475Z,4.00
2018-07-04T14:52:44.665Z,5.30
2018-07-04T14:53:44.652Z,6.70
2018-07-04T14:54:44.440Z,4.50
2018-07-04T14:55:44.654Z,6.30
2018-07-04T14:56:44.619Z,8.00
2018-07-04T14:57:44.421Z,5.30
2018-07-04T14:58:44.402Z,6.60
2018-07-04T14:59:44.586Z,5.30
2018-07-04T15:00:44.577Z,5.90
2018-07-04T15:01:44.564Z,6.50
2018-07-04T15:02:44.551Z,5.10
2018-07-04T15:03:48.177Z,4.00
2018-07-04T15:04:44.527Z,4.50
2018-07-04T15:05:44.514Z,8.20
2018-07-04T15:06:44.299Z,3.80
2018-07-04T15:07:44.291Z,5.20
2018-07-04T15:08:44.282Z,5.20
2018-07-04T15:09:44.263Z,5.80
2018-07-04T15:10:44.253Z,5.30
2018-07-04T15:11:44.237Z,5.20
2018-07-04T15:12:44.224Z,6.40
2018-07-04T15:13:44.212Z,6.00